Time;durP1;ratioP1;P1;durP2;ratioP2;P2;SDS_P1;SDS_P2;PMS_P1;PMS_P2;Temp;Humidity;BMP_temperature;BMP_pressure;BME280_temperature;BME280_humidity;BME280_pressure;Samples;Min_cycle;Max_cycle;Signal;HPM_P1;HPM_P2
2021/03/19 00:00:42;;;;;;;15.57;11.43;;;3.00;99.90;;;;;;5050235;28;20531;-71
2021/03/19 00:03:09;;;;;;;16.20;10.83;;;2.90;99.90;;;;;;5050688;28;20469;-71
2021/03/19 00:05:35;;;;;;;32.03;17.03;;;2.90;99.90;;;;;;5050591;28;20538;-71
2021/03/19 00:08:02;;;;;;;16.90;12.40;;;2.80;99.90;;;;;;5050364;28;20482;-71
2021/03/19 00:10:31;;;;;;;28.90;17.47;;;2.70;99.90;;;;;;5050166;28;21069;-72
2021/03/19 00:13:01;;;;;;;32.27;17.50;;;2.70;99.90;;;;;;5050337;28;20456;-71
2021/03/19 00:15:29;;;;;;;21.07;12.70;;;2.60;99.90;;;;;;5050947;28;20530;-71
2021/03/19 00:17:57;;;;;;;27.23;18.03;;;2.60;99.90;;;;;;5050646;28;20957;-70
2021/03/19 00:20:23;;;;;;;23.13;17.30;;;2.50;99.90;;;;;;5050642;28;20551;-71
2021/03/19 00:22:50;;;;;;;16.33;14.50;;;2.50;99.90;;;;;;5051081;28;20878;-71
2021/03/19 00:25:16;;;;;;;22.23;13.80;;;2.50;99.90;;;;;;5054081;28;20940;-71
2021/03/19 00:27:43;;;;;;;17.17;13.30;;;2.50;99.90;;;;;;5054775;28;20451;-72
2021/03/19 00:30:12;;;;;;;15.57;13.10;;;2.40;99.90;;;;;;5054400;28;20508;-71
2021/03/19 00:32:39;;;;;;;15.47;12.10;;;2.50;99.90;;;;;;5054666;28;20494;-72
2021/03/19 00:35:08;;;;;;;15.67;13.37;;;2.40;99.90;;;;;;5054689;28;20490;-71
2021/03/19 00:37:34;;;;;;;24.03;18.37;;;2.30;99.90;;;;;;5054493;28;20483;-72
2021/03/19 00:40:01;;;;;;;19.30;14.30;;;2.20;99.90;;;;;;5053831;28;20502;-71
2021/03/19 00:42:29;;;;;;;18.47;14.30;;;2.20;99.90;;;;;;5054678;28;20444;-71
2021/03/19 00:44:55;;;;;;;14.33;12.80;;;2.10;99.90;;;;;;5054330;28;20448;-73
2021/03/19 00:47:22;;;;;;;18.20;14.20;;;2.10;99.90;;;;;;5054391;28;20526;-72
2021/03/19 00:49:49;;;;;;;21.37;13.00;;;2.00;99.90;;;;;;5053801;28;20455;-71
2021/03/19 00:52:15;;;;;;;15.07;13.13;;;2.00;99.90;;;;;;5054070;28;20517;-71
2021/03/19 00:54:42;;;;;;;17.03;15.03;;;1.90;99.90;;;;;;5053931;28;20447;-71
2021/03/19 00:57:08;;;;;;;16.17;13.40;;;1.90;99.90;;;;;;5054461;28;20447;-71
2021/03/19 00:59:34;;;;;;;20.17;14.40;;;2.00;99.90;;;;;;5053881;28;20472;-71
2021/03/19 01:02:01;;;;;;;19.50;14.97;;;1.90;99.90;;;;;;5053911;28;20539;-72
2021/03/19 01:04:28;;;;;;;19.13;14.73;;;1.90;99.90;;;;;;5053755;28;20990;-70
2021/03/19 01:06:54;;;;;;;21.87;16.27;;;1.90;99.90;;;;;;5053845;28;20998;-72
2021/03/19 01:09:21;;;;;;;19.40;15.03;;;2.00;99.90;;;;;;5053870;28;20531;-71
2021/03/19 01:11:47;;;;;;;21.13;16.53;;;1.90;99.90;;;;;;5053135;28;21014;-72
2021/03/19 01:14:14;;;;;;;19.17;14.17;;;1.90;99.90;;;;;;5053723;28;20897;-71
2021/03/19 01:16:41;;;;;;;16.53;13.77;;;1.90;99.90;;;;;;5053979;28;21029;-71
2021/03/19 01:19:08;;;;;;;18.60;15.27;;;1.90;99.90;;;;;;5053404;28;20450;-71
2021/03/19 01:21:35;;;;;;;20.97;17.20;;;1.90;99.90;;;;;;5051887;28;20622;-72
2021/03/19 01:24:02;;;;;;;22.17;15.77;;;1.90;99.90;;;;;;5056670;28;20527;-73
2021/03/19 01:26:28;;;;;;;23.70;15.50;;;1.80;99.90;;;;;;5056472;28;20505;-71
2021/03/19 01:28:54;;;;;;;22.20;15.73;;;1.80;99.90;;;;;;5056674;28;20582;-71
2021/03/19 01:31:21;;;;;;;20.00;15.93;;;1.80;99.90;;;;;;5056617;28;20520;-72
2021/03/19 01:33:47;;;;;;;20.67;16.80;;;1.80;99.90;;;;;;5056026;28;20499;-72
2021/03/19 01:36:14;;;;;;;24.80;17.57;;;1.80;99.90;;;;;;5053941;28;20535;-72
2021/03/19 01:38:41;;;;;;;23.67;18.20;;;1.80;99.90;;;;;;5055506;28;20527;-73
2021/03/19 01:41:09;;;;;;;21.17;17.60;;;1.80;99.90;;;;;;5054703;28;20522;-73
2021/03/19 01:43:37;;;;;;;17.60;14.80;;;1.80;99.90;;;;;;5054086;28;20536;-71
2021/03/19 01:46:40;;;;;;;20.50;16.00;;;1.70;99.90;;;;;;5054223;28;20872;-72
2021/03/19 01:49:44;;;;;;;20.90;16.17;;;1.70;99.90;;;;;;5054182;28;20526;-71
2021/03/19 01:52:48;;;;;;;23.27;16.63;;;1.70;99.90;;;;;;5053768;28;20526;-72
2021/03/19 01:55:51;;;;;;;20.40;17.50;;;1.60;99.90;;;;;;5053586;28;20530;-73
2021/03/19 01:58:55;;;;;;;20.90;16.63;;;1.60;99.90;;;;;;5053545;28;20924;-72
2021/03/19 02:01:58;;;;;;;21.47;16.00;;;1.60;99.90;;;;;;5052997;28;20911;-71
2021/03/19 02:05:02;;;;;;;23.93;17.37;;;1.50;99.90;;;;;;5053372;28;20542;-72
2021/03/19 02:08:08;;;;;;;22.70;15.97;;;1.50;99.90;;;;;;5053951;28;20444;-72
2021/03/19 02:11:11;;;;;;;24.13;17.60;;;1.50;99.90;;;;;;5035232;28;20492;-72
2021/03/19 02:14:15;;;;;;;21.83;17.53;;;1.40;99.90;;;;;;5053433;28;20523;-70
2021/03/19 02:17:18;;;;;;;27.90;19.60;;;1.30;99.90;;;;;;5053857;28;20928;-72
2021/03/19 02:20:22;;;;;;;27.93;19.83;;;1.40;99.90;;;;;;5052926;28;20534;-71
2021/03/19 02:23:26;;;;;;;23.10;18.00;;;1.50;99.90;;;;;;5053874;28;20527;-73
2021/03/19 02:26:29;;;;;;;29.37;18.43;;;1.50;99.90;;;;;;5054278;28;20478;-70
2021/03/19 02:29:32;;;;;;;29.20;21.43;;;1.40;99.90;;;;;;5053983;28;20535;-72
2021/03/19 02:32:08;;;;;;;25.80;20.03;;;1.40;99.90;;;;;;5030873;28;20587;-71
2021/03/19 02:34:40;;;;;;;28.97;19.40;;;1.40;99.90;;;;;;5052960;28;20483;-71
2021/03/19 02:37:10;;;;;;;30.77;19.73;;;1.50;99.90;;;;;;5053137;28;20490;-71
2021/03/19 02:39:37;;;;;;;28.33;20.63;;;1.60;99.90;;;;;;5053029;28;20531;-71
2021/03/19 02:42:04;;;;;;;30.23;21.67;;;1.60;99.90;;;;;;5053253;28;20519;-72
2021/03/19 02:44:30;;;;;;;29.77;21.93;;;1.70;99.90;;;;;;5053325;28;20535;-71
2021/03/19 02:46:57;;;;;;;29.60;22.23;;;1.60;99.90;;;;;;5052328;28;20536;-72
2021/03/19 02:49:24;;;;;;;26.07;20.37;;;1.60;99.90;;;;;;5052524;28;20476;-72
2021/03/19 02:51:53;;;;;;;28.90;19.77;;;1.70;99.90;;;;;;5052675;28;20567;-73
2021/03/19 02:54:19;;;;;;;29.33;20.73;;;1.70;99.90;;;;;;5053393;28;20593;-72
2021/03/19 02:56:46;;;;;;;28.57;20.83;;;1.70;99.90;;;;;;5052572;28;20534;-72
2021/03/19 02:59:12;;;;;;;26.10;19.80;;;1.70;99.90;;;;;;5052750;28;20530;-72
2021/03/19 03:01:39;;;;;;;27.50;20.23;;;1.60;99.90;;;;;;5051935;28;20614;-72
2021/03/19 03:04:05;;;;;;;29.90;20.30;;;1.50;99.90;;;;;;5052702;28;20573;-72
2021/03/19 03:06:41;;;;;;;29.03;21.63;;;1.50;99.90;;;;;;5052613;28;20478;-72
2021/03/19 03:09:10;;;;;;;24.93;19.33;;;1.50;99.90;;;;;;5052491;28;20526;-72
2021/03/19 03:11:37;;;;;;;28.67;20.37;;;1.40;99.90;;;;;;5051783;28;20567;-73
2021/03/19 03:14:06;;;;;;;29.80;21.40;;;1.40;99.90;;;;;;5051834;28;20440;-71
2021/03/19 03:16:33;;;;;;;35.80;22.37;;;1.30;99.90;;;;;;5052637;28;20818;-72
2021/03/19 03:18:59;;;;;;;31.53;23.83;;;1.30;99.90;;;;;;5052225;28;20983;-71
2021/03/19 03:21:26;;;;;;;40.37;25.30;;;1.30;99.90;;;;;;5051419;28;20543;-70
2021/03/19 03:23:54;;;;;;;34.60;23.10;;;1.40;99.90;;;;;;5052303;28;20993;-72
2021/03/19 03:26:20;;;;;;;33.33;23.67;;;1.50;99.90;;;;;;5052088;28;20510;-71
2021/03/19 03:28:46;;;;;;;34.00;24.43;;;1.50;99.90;;;;;;5052463;28;20530;-72
2021/03/19 03:31:13;;;;;;;36.73;24.47;;;1.50;99.90;;;;;;5051639;28;20559;-71
2021/03/19 03:33:39;;;;;;;35.87;24.63;;;1.60;99.90;;;;;;5052314;28;20527;-73
2021/03/19 03:36:06;;;;;;;40.40;24.30;;;1.60;99.90;;;;;;5052837;28;20589;-72
2021/03/19 03:38:33;;;;;;;34.50;24.43;;;1.60;99.90;;;;;;5052919;28;20503;-72
2021/03/19 03:41:05;;;;;;;37.17;25.67;;;1.70;99.90;;;;;;5052714;28;20475;-71
2021/03/19 03:43:31;;;;;;;36.30;25.90;;;1.80;99.90;;;;;;5052741;28;20915;-72
2021/03/19 03:45:58;;;;;;;41.40;27.20;;;1.70;99.90;;;;;;5053448;28;20985;-72
2021/03/19 03:48:28;;;;;;;39.93;26.10;;;1.70;99.90;;;;;;5053459;28;20530;-72
2021/03/19 03:50:55;;;;;;;37.97;26.00;;;1.80;99.90;;;;;;5052552;28;20548;-70
2021/03/19 03:53:22;;;;;;;37.37;27.33;;;1.90;99.90;;;;;;5053883;28;20530;-72
2021/03/19 03:55:49;;;;;;;38.27;27.43;;;1.90;99.90;;;;;;5053983;28;20498;-71
2021/03/19 03:58:18;;;;;;;36.53;26.90;;;2.00;99.90;;;;;;5052981;28;21026;-72
2021/03/19 04:00:45;;;;;;;38.57;27.37;;;2.00;99.90;;;;;;5053576;28;20558;-70
2021/03/19 04:03:12;;;;;;;38.50;28.97;;;2.00;99.90;;;;;;5053531;28;20452;-71
2021/03/19 04:05:40;;;;;;;32.33;23.40;;;2.10;99.90;;;;;;5054553;28;20570;-70
2021/03/19 04:08:07;;;;;;;37.60;25.20;;;2.10;99.90;;;;;;5054509;28;20507;-72
2021/03/19 04:10:34;;;;;;;32.30;24.80;;;2.00;99.90;;;;;;5054356;28;20538;-72
2021/03/19 04:13:00;;;;;;;32.53;24.67;;;2.00;99.90;;;;;;5055172;28;20547;-72
2021/03/19 04:15:28;;;;;;;32.97;26.17;;;1.90;99.90;;;;;;5054561;28;20928;-72
2021/03/19 04:17:55;;;;;;;37.20;28.37;;;1.90;99.90;;;;;;5055582;28;20508;-72
2021/03/19 04:20:23;;;;;;;35.30;28.40;;;1.90;99.90;;;;;;5054975;28;20835;-72
2021/03/19 04:22:49;;;;;;;34.27;25.60;;;2.00;99.90;;;;;;5056750;28;20498;-71
2021/03/19 04:25:17;;;;;;;38.10;27.07;;;2.10;99.90;;;;;;5057113;28;20507;-71
2021/03/19 04:27:46;;;;;;;38.30;26.60;;;2.00;99.90;;;;;;5056235;28;20486;-71
2021/03/19 04:30:19;;;;;;;33.87;26.00;;;2.00;99.90;;;;;;5055699;28;20467;-72
2021/03/19 04:32:46;;;;;;;37.33;27.83;;;2.00;99.90;;;;;;5054111;28;20562;-71
2021/03/19 04:35:13;;;;;;;39.33;28.27;;;2.00;99.90;;;;;;5053734;28;20464;-72
2021/03/19 04:37:40;;;;;;;40.13;28.60;;;1.90;99.90;;;;;;5052453;28;20499;-71
2021/03/19 04:40:07;;;;;;;39.13;28.63;;;1.90;99.90;;;;;;5052729;28;20470;-72
2021/03/19 04:42:34;;;;;;;43.83;31.07;;;1.80;99.90;;;;;;5053590;28;20571;-70
2021/03/19 04:45:01;;;;;;;39.33;29.10;;;1.90;99.90;;;;;;5053102;28;20539;-71
2021/03/19 04:47:27;;;;;;;44.73;30.53;;;1.90;99.90;;;;;;5053440;28;20443;-72
2021/03/19 04:49:54;;;;;;;40.00;30.67;;;1.90;99.90;;;;;;5051792;28;20494;-72
2021/03/19 04:52:21;;;;;;;38.37;28.83;;;1.90;99.90;;;;;;5052073;28;20502;-71
2021/03/19 04:54:47;;;;;;;35.53;28.97;;;1.90;99.90;;;;;;5052777;28;20479;-72
2021/03/19 04:57:13;;;;;;;41.47;29.00;;;1.90;99.90;;;;;;5053554;28;20475;-73
2021/03/19 04:59:40;;;;;;;38.23;30.37;;;2.00;99.90;;;;;;5052732;28;20830;-73
2021/03/19 05:02:06;;;;;;;42.60;31.33;;;1.90;99.90;;;;;;5053852;28;20471;-73
2021/03/19 05:04:33;;;;;;;42.93;31.80;;;1.80;99.90;;;;;;5051588;28;20523;-72
2021/03/19 05:07:04;;;;;;;49.60;32.70;;;1.90;99.90;;;;;;5052581;28;20454;-73
2021/03/19 05:09:32;;;;;;;44.97;31.10;;;1.90;99.90;;;;;;5052094;28;20463;-71
2021/03/19 05:11:58;;;;;;;46.53;32.20;;;1.90;99.90;;;;;;5055061;28;20578;-72
2021/03/19 05:14:25;;;;;;;47.20;33.03;;;1.90;99.90;;;;;;5055557;28;20947;-72
2021/03/19 05:16:52;;;;;;;48.20;32.40;;;1.90;99.90;;;;;;5055413;28;20530;-72
2021/03/19 05:19:19;;;;;;;40.27;31.40;;;1.90;99.90;;;;;;5055402;28;20697;-72
2021/03/19 05:21:46;;;;;;;41.73;31.30;;;2.00;99.90;;;;;;5056560;28;20542;-72
2021/03/19 05:24:14;;;;;;;40.60;29.47;;;2.10;99.90;;;;;;5057469;28;20522;-73
2021/03/19 05:26:41;;;;;;;41.40;33.00;;;2.10;99.90;;;;;;5056643;28;20574;-73
2021/03/19 05:29:09;;;;;;;43.30;30.80;;;2.10;99.90;;;;;;5055600;28;20546;-72
2021/03/19 05:31:35;;;;;;;42.17;31.50;;;2.10;99.90;;;;;;5055073;28;20571;-71
2021/03/19 05:34:01;;;;;;;40.73;28.97;;;2.10;99.90;;;;;;5056230;28;20531;-72
2021/03/19 05:36:30;;;;;;;38.67;29.47;;;2.10;99.90;;;;;;5055905;28;20623;-73
2021/03/19 05:38:56;;;;;;;39.47;28.23;;;2.20;99.90;;;;;;5058165;28;20864;-72
2021/03/19 05:41:27;;;;;;;36.47;28.47;;;2.20;99.90;;;;;;5057212;28;20519;-73
2021/03/19 05:43:55;;;;;;;35.70;27.90;;;2.20;99.90;;;;;;5056578;28;20977;-71
2021/03/19 05:46:24;;;;;;;36.10;28.20;;;2.20;99.90;;;;;;5054267;28;20525;-69
2021/03/19 05:48:56;;;;;;;38.30;29.40;;;2.20;99.90;;;;;;5052748;28;20535;-70
2021/03/19 05:51:34;;;;;;;44.20;30.53;;;2.30;99.90;;;;;;5053280;28;20472;-71
2021/03/19 05:54:19;;;;;;;43.43;30.10;;;2.30;99.90;;;;;;5054800;28;20526;-71
2021/03/19 05:56:48;;;;;;;39.73;28.10;;;2.30;99.90;;;;;;5054570;28;20547;-71
2021/03/19 05:59:14;;;;;;;36.00;28.20;;;2.30;99.90;;;;;;5054136;28;20484;-71
2021/03/19 06:01:41;;;;;;;41.47;28.90;;;2.30;99.90;;;;;;5053491;28;20462;-70
2021/03/19 06:04:18;;;;;;;39.50;30.90;;;2.30;99.90;;;;;;5055787;28;20467;-71
2021/03/19 06:06:47;;;;;;;38.67;31.73;;;2.20;99.90;;;;;;5055169;28;20452;-70
2021/03/19 06:09:39;;;;;;;36.93;29.30;;;2.30;99.90;;;;;;5057491;28;20472;-71
2021/03/19 06:12:11;;;;;;;41.93;31.47;;;2.30;99.90;;;;;;5042049;28;21078;-70
2021/03/19 06:14:46;;;;;;;43.70;30.90;;;2.30;99.90;;;;;;5054631;28;20531;-69
2021/03/19 06:17:25;;;;;;;40.60;31.10;;;2.30;99.90;;;;;;5052320;28;20446;-70
2021/03/19 06:19:56;;;;;;;40.50;29.80;;;2.40;99.90;;;;;;5052063;28;20531;-70
2021/03/19 06:22:29;;;;;;;42.30;30.77;;;2.40;99.90;;;;;;5049973;28;20527;-71
2021/03/19 06:25:00;;;;;;;43.50;31.67;;;2.40;99.90;;;;;;5052070;28;20506;-69
2021/03/19 06:27:34;;;;;;;42.90;32.97;;;2.50;99.90;;;;;;5051877;28;20447;-69
2021/03/19 06:30:09;;;;;;;42.30;32.57;;;2.50;99.90;;;;;;5069847;28;20469;-71
2021/03/19 06:32:35;;;;;;;38.60;31.80;;;2.60;99.90;;;;;;5052662;28;20537;-69
2021/03/19 06:35:17;;;;;;;42.93;33.13;;;2.60;99.90;;;;;;5049179;28;20531;-69
2021/03/19 06:37:47;;;;;;;38.03;30.43;;;2.60;99.90;;;;;;5051153;28;20448;-70
2021/03/19 06:40:34;;;;;;;38.57;30.13;;;2.80;99.90;;;;;;5050249;28;21180;-69
2021/03/19 06:43:18;;;;;;;42.80;28.93;;;2.90;99.90;;;;;;5051748;28;20523;-68
2021/03/19 06:45:45;;;;;;;40.37;32.20;;;2.90;99.90;;;;;;5051917;28;20935;-74
2021/03/19 06:48:33;;;;;;;39.60;31.40;;;2.90;99.90;;;;;;5051703;28;20447;-71
2021/03/19 06:51:00;;;;;;;38.30;31.10;;;2.90;99.90;;;;;;5051048;28;20571;-69
2021/03/19 06:53:29;;;;;;;37.07;30.27;;;3.00;99.90;;;;;;5049923;28;20531;-70
2021/03/19 06:55:57;;;;;;;34.77;27.37;;;3.10;99.90;;;;;;5051506;28;20480;-69
2021/03/19 06:58:36;;;;;;;31.70;27.57;;;3.10;99.90;;;;;;5051473;28;20526;-70
2021/03/19 07:01:05;;;;;;;43.83;30.90;;;3.10;99.90;;;;;;5050542;28;21039;-71
2021/03/19 07:03:46;;;;;;;37.93;29.80;;;3.20;99.90;;;;;;5043307;28;20444;-71
2021/03/19 07:06:41;;;;;;;35.57;27.93;;;3.20;99.90;;;;;;5044463;28;20527;-71
2021/03/19 07:09:16;;;;;;;34.53;28.43;;;3.30;99.90;;;;;;5041315;28;20533;-71
2021/03/19 07:11:59;;;;;;;33.30;28.10;;;3.40;99.90;;;;;;5046997;28;20569;-71
2021/03/19 07:14:54;;;;;;;32.80;25.90;;;3.40;99.90;;;;;;5035969;28;20535;-70
2021/03/19 07:17:39;;;;;;;32.83;26.70;;;3.50;99.90;;;;;;5047208;28;20479;-71
2021/03/19 07:20:15;;;;;;;32.57;27.43;;;3.70;99.90;;;;;;5046728;28;20539;-71
2021/03/19 07:22:53;;;;;;;31.00;26.40;;;3.90;99.90;;;;;;5049163;28;20516;-71
2021/03/19 07:25:53;;;;;;;30.43;25.27;;;4.00;99.90;;;;;;5070293;28;20852;-71
2021/03/19 07:28:46;;;;;;;31.70;27.73;;;3.80;99.90;;;;;;5070177;28;20439;-71
2021/03/19 07:31:39;;;;;;;36.00;26.40;;;3.70;99.90;;;;;;5045983;28;20480;-71
2021/03/19 07:34:22;;;;;;;36.03;27.90;;;3.70;99.90;;;;;;5043723;28;20471;-71
2021/03/19 07:36:59;;;;;;;42.53;27.83;;;3.70;99.90;;;;;;5050250;28;20463;-70
2021/03/19 07:39:42;;;;;;;35.30;27.53;;;3.80;99.90;;;;;;5049843;28;20467;-70
2021/03/19 07:42:29;;;;;;;42.97;32.03;;;3.80;99.90;;;;;;5044738;28;20471;-71
2021/03/19 07:45:02;;;;;;;35.40;28.50;;;3.90;99.90;;;;;;5045206;28;20974;-70
2021/03/19 07:48:06;;;;;;;38.27;29.73;;;3.90;99.90;;;;;;5049474;28;20444;-71
2021/03/19 07:50:41;;;;;;;40.97;30.90;;;3.90;99.90;;;;;;5038975;28;20472;-71
2021/03/19 07:53:36;;;;;;;37.10;28.47;;;3.90;99.90;;;;;;5043809;28;20570;-72
2021/03/19 07:56:11;;;;;;;33.43;26.83;;;3.90;99.90;;;;;;5045302;28;20452;-71
2021/03/19 07:58:50;;;;;;;34.30;27.40;;;3.80;99.90;;;;;;5042342;28;20440;-71
2021/03/19 08:01:25;;;;;;;28.60;24.03;;;3.80;99.90;;;;;;5047785;28;20465;-72
2021/03/19 08:04:01;;;;;;;30.63;22.80;;;3.80;99.90;;;;;;5030266;28;20447;-71
2021/03/19 08:06:34;;;;;;;30.03;22.83;;;3.80;99.90;;;;;;5047704;28;20591;-70
2021/03/19 08:09:06;;;;;;;31.30;24.60;;;3.70;99.90;;;;;;5034191;28;20540;-71
2021/03/19 08:11:39;;;;;;;31.37;24.47;;;3.70;99.90;;;;;;5021018;28;612909;-71
2021/03/19 08:14:33;;;;;;;31.00;23.83;;;3.60;99.90;;;;;;5045364;28;20439;-71
2021/03/19 08:17:05;;;;;;;29.60;23.70;;;3.50;99.90;;;;;;5030500;28;20481;-71
2021/03/19 08:19:37;;;;;;;30.40;22.87;;;3.40;99.90;;;;;;5030149;28;20484;-71
2021/03/19 08:22:15;;;;;;;28.13;22.00;;;3.40;99.90;;;;;;5045590;28;20523;-71
2021/03/19 08:24:50;;;;;;;25.47;19.63;;;3.40;99.90;;;;;;5043934;28;20516;-71
2021/03/19 08:27:36;;;;;;;26.87;18.23;;;3.50;99.90;;;;;;5038087;28;20457;-70
2021/03/19 08:30:12;;;;;;;28.83;20.47;;;3.70;99.90;;;;;;5042807;28;20645;-71
2021/03/19 08:32:47;;;;;;;23.80;18.20;;;3.70;99.90;;;;;;5051166;28;20558;-71
2021/03/19 08:35:22;;;;;;;23.77;16.63;;;3.80;99.90;;;;;;5050459;28;20447;-72
2021/03/19 08:38:00;;;;;;;21.97;17.03;;;3.70;99.90;;;;;;5050145;28;21238;-71
2021/03/19 08:40:34;;;;;;;26.70;19.30;;;3.60;99.90;;;;;;5036544;28;20542;-72
2021/03/19 08:43:04;;;;;;;20.43;16.73;;;3.50;99.90;;;;;;5048725;28;20490;-71
2021/03/19 08:45:31;;;;;;;23.50;19.10;;;3.50;99.90;;;;;;5046704;28;20467;-71
2021/03/19 08:48:01;;;;;;;23.20;16.13;;;3.50;99.90;;;;;;5052778;28;20448;-71
2021/03/19 08:50:35;;;;;;;21.77;16.50;;;3.50;99.90;;;;;;5050930;28;20551;-71
2021/03/19 08:53:06;;;;;;;23.73;18.40;;;3.50;99.90;;;;;;5051828;28;20485;-71
2021/03/19 08:55:34;;;;;;;22.30;16.13;;;3.50;99.90;;;;;;5053843;28;20440;-70
2021/03/19 08:58:36;;;;;;;23.50;16.00;;;3.60;99.90;;;;;;5039085;28;21405;-71
2021/03/19 09:01:04;;;;;;;23.23;16.63;;;3.60;99.90;;;;;;5053153;28;20833;-71
2021/03/19 09:03:53;;;;;;;22.07;14.50;;;3.80;99.90;;;;;;5049816;28;20429;-70
2021/03/19 09:06:23;;;;;;;21.50;15.97;;;3.80;99.90;;;;;;5033562;28;20527;-71
2021/03/19 09:09:36;;;;;;;19.70;14.10;;;3.80;99.90;;;;;;5033760;28;20444;-71
2021/03/19 09:12:24;;;;;;;16.90;13.60;;;3.90;99.90;;;;;;5033375;28;20510;-71
2021/03/19 09:15:13;;;;;;;19.90;13.77;;;4.00;99.90;;;;;;5033583;28;20476;-71
2021/03/19 09:17:51;;;;;;;20.17;15.10;;;3.90;99.90;;;;;;5033414;28;20453;-71
2021/03/19 09:20:34;;;;;;;18.60;13.30;;;3.90;99.90;;;;;;5033260;28;20464;-71
2021/03/19 09:23:22;;;;;;;20.30;13.17;;;4.00;99.90;;;;;;5033190;28;20479;-71
2021/03/19 09:25:52;;;;;;;19.70;15.07;;;4.10;99.90;;;;;;5033439;28;20515;-71
2021/03/19 09:28:38;;;;;;;21.60;15.53;;;4.10;99.90;;;;;;5033494;28;20445;-70
2021/03/19 09:31:25;;;;;;;14.83;10.63;;;4.30;99.90;;;;;;5035816;28;20461;-72
2021/03/19 09:34:02;;;;;;;14.73;11.50;;;4.50;99.90;;;;;;5045887;28;20520;-71
2021/03/19 09:36:56;;;;;;;15.03;11.70;;;4.60;99.90;;;;;;5033117;28;20531;-71
2021/03/19 09:39:55;;;;;;;13.10;11.50;;;4.70;99.90;;;;;;5033100;28;20576;-72
2021/03/19 09:42:42;;;;;;;15.67;11.97;;;4.80;99.90;;;;;;5032821;28;20445;-71
2021/03/19 09:45:45;;;;;;;14.13;11.40;;;5.00;99.90;;;;;;5034807;28;20506;-70
2021/03/19 09:48:29;;;;;;;12.77;10.37;;;5.30;99.90;;;;;;5048937;28;20918;-71
2021/03/19 09:51:15;;;;;;;13.57;11.47;;;5.60;99.90;;;;;;5036807;28;20540;-70
2021/03/19 09:53:42;;;;;;;11.33;9.53;;;5.90;99.90;;;;;;5051488;28;20453;-71
2021/03/19 09:56:22;;;;;;;13.37;10.50;;;5.90;99.90;;;;;;5061668;28;21050;-71
2021/03/19 09:58:53;;;;;;;14.97;11.33;;;6.10;99.90;;;;;;5058317;28;21199;-71
2021/03/19 10:01:31;;;;;;;12.30;11.00;;;6.00;99.90;;;;;;5064690;28;20468;-71
2021/03/19 10:04:00;;;;;;;14.43;10.60;;;6.00;99.90;;;;;;5049095;28;20448;-71
2021/03/19 10:06:31;;;;;;;12.13;10.27;;;5.80;99.90;;;;;;5055027;28;20444;-71
2021/03/19 10:09:09;;;;;;;11.50;9.20;;;5.50;99.90;;;;;;5046084;28;20512;-71
2021/03/19 10:11:35;;;;;;;11.20;9.00;;;5.10;99.90;;;;;;5047090;28;20510;-71
2021/03/19 10:14:13;;;;;;;10.20;8.23;;;4.60;99.90;;;;;;5056039;28;20483;-72
2021/03/19 10:16:40;;;;;;;12.93;9.23;;;4.20;99.90;;;;;;5052512;28;20483;-72
2021/03/19 10:19:15;;;;;;;13.60;10.60;;;3.80;99.90;;;;;;5052128;28;20443;-71
2021/03/19 10:21:45;;;;;;;15.23;11.63;;;3.50;99.90;;;;;;5054717;28;20550;-73
2021/03/19 10:24:12;;;;;;;17.97;14.30;;;3.50;99.90;;;;;;5060563;28;20817;-71
2021/03/19 10:26:47;;;;;;;18.40;13.40;;;3.70;99.90;;;;;;5056445;28;20545;-73
2021/03/19 10:29:17;;;;;;;16.27;11.90;;;4.10;99.90;;;;;;5058624;28;20840;-72
2021/03/19 10:31:51;;;;;;;12.50;10.20;;;4.40;99.90;;;;;;5053560;28;20558;-72
2021/03/19 10:34:28;;;;;;;10.77;8.33;;;4.80;99.90;;;;;;5051625;28;20466;-71
2021/03/19 10:37:00;;;;;;;9.60;8.53;;;5.10;99.90;;;;;;5051932;28;20454;-72
2021/03/19 10:39:33;;;;;;;5.60;4.87;;;5.30;99.90;;;;;;5055516;28;20474;-72
2021/03/19 10:42:13;;;;;;;5.70;4.53;;;5.10;99.90;;;;;;5057019;28;20492;-71
2021/03/19 10:44:47;;;;;;;13.23;4.80;;;4.80;99.90;;;;;;5052066;28;20479;-70
2021/03/19 10:47:21;;;;;;;7.50;6.63;;;4.50;99.90;;;;;;5059580;28;20523;-71
2021/03/19 10:49:53;;;;;;;8.60;7.63;;;4.40;99.90;;;;;;5051750;28;20472;-71
2021/03/19 10:52:29;;;;;;;8.57;6.60;;;4.50;99.90;;;;;;5048606;28;20467;-72
2021/03/19 10:54:59;;;;;;;7.40;6.10;;;4.90;99.90;;;;;;5052001;28;20452;-72
2021/03/19 10:57:30;;;;;;;10.00;6.90;;;5.10;99.90;;;;;;5056890;28;20467;-71
2021/03/19 10:59:56;;;;;;;6.60;5.70;;;4.90;99.90;;;;;;5055066;28;20441;-71
2021/03/19 11:02:26;;;;;;;6.70;4.83;;;4.70;99.90;;;;;;5051677;28;20511;-71
2021/03/19 11:05:11;;;;;;;5.23;4.73;;;4.60;99.90;;;;;;5046591;28;20468;-70
2021/03/19 11:07:43;;;;;;;5.80;4.80;;;4.40;99.90;;;;;;5048321;28;20455;-71
2021/03/19 11:10:47;;;;;;;5.27;4.40;;;4.40;99.90;;;;;;5047792;28;20460;-71
2021/03/19 11:13:27;;;;;;;6.70;4.80;;;4.30;99.90;;;;;;5046536;28;20479;-71
2021/03/19 11:15:56;;;;;;;7.40;4.53;;;4.30;99.90;;;;;;5052785;28;20468;-71
2021/03/19 11:18:24;;;;;;;5.90;4.63;;;4.30;99.90;;;;;;5052289;28;20526;-70
2021/03/19 11:20:53;;;;;;;8.00;6.10;;;4.60;99.90;;;;;;5050418;28;20496;-70
2021/03/19 11:23:35;;;;;;;5.83;4.80;;;4.70;99.90;;;;;;5050409;28;20531;-69
2021/03/19 11:26:19;;;;;;;6.77;5.40;;;4.90;99.90;;;;;;5051414;28;20483;-70
2021/03/19 11:28:48;;;;;;;6.90;5.57;;;5.20;99.90;;;;;;5050607;28;20447;-72
2021/03/19 11:31:22;;;;;;;6.40;4.93;;;5.30;99.90;;;;;;5047158;28;20552;-71
2021/03/19 11:34:03;;;;;;;7.43;5.97;;;5.40;99.90;;;;;;5032333;28;20506;-72
2021/03/19 11:36:53;;;;;;;6.13;4.90;;;5.20;99.90;;;;;;5033024;28;20531;-72
2021/03/19 11:39:35;;;;;;;7.13;5.13;;;4.70;99.90;;;;;;5031958;28;20452;-71
2021/03/19 11:42:04;;;;;;;9.80;6.60;;;4.30;99.90;;;;;;5035407;28;20468;-72
2021/03/19 11:44:31;;;;;;;7.90;6.80;;;4.10;99.90;;;;;;5048157;28;20504;-70
2021/03/19 11:46:57;;;;;;;8.27;6.00;;;4.20;99.90;;;;;;5045692;28;20471;-70
2021/03/19 11:49:24;;;;;;;12.83;7.67;;;4.20;99.90;;;;;;5047930;28;20475;-71
2021/03/19 11:51:51;;;;;;;10.73;7.80;;;4.20;99.90;;;;;;5050678;28;20517;-71
2021/03/19 11:54:20;;;;;;;10.93;7.83;;;4.50;99.90;;;;;;5050652;28;20456;-70
2021/03/19 11:56:50;;;;;;;9.77;7.63;;;4.70;99.90;;;;;;5045251;28;20481;-70
2021/03/19 11:59:17;;;;;;;10.57;8.97;;;4.90;99.90;;;;;;5051619;28;20456;-72
2021/03/19 12:01:43;;;;;;;12.30;8.77;;;4.90;99.90;;;;;;5048133;28;20504;-71
2021/03/19 12:04:17;;;;;;;11.03;8.50;;;4.80;99.90;;;;;;5036064;28;20484;-70
2021/03/19 12:06:44;;;;;;;12.50;8.10;;;4.80;99.90;;;;;;5031266;28;20535;-71
2021/03/19 12:09:10;;;;;;;12.07;7.70;;;4.70;99.90;;;;;;5031364;28;20536;-71
2021/03/19 12:11:40;;;;;;;11.40;7.63;;;4.60;99.90;;;;;;5029961;28;20575;-71
2021/03/19 12:14:15;;;;;;;11.83;7.77;;;4.60;99.90;;;;;;5030658;28;20523;-71
2021/03/19 12:16:42;;;;;;;9.87;7.40;;;4.50;99.90;;;;;;5048709;28;21033;-71
2021/03/19 12:19:08;;;;;;;14.10;10.70;;;4.40;99.90;;;;;;5048535;28;20480;-72
2021/03/19 12:21:35;;;;;;;13.13;8.70;;;4.30;99.90;;;;;;5053749;28;20518;-71
2021/03/19 12:24:01;;;;;;;15.60;10.50;;;4.30;99.90;;;;;;5054339;28;20562;-71
2021/03/19 12:26:27;;;;;;;14.07;9.33;;;4.30;99.90;;;;;;5054529;28;20447;-71
2021/03/19 12:28:54;;;;;;;10.53;7.90;;;4.10;99.90;;;;;;5055047;28;20535;-71
2021/03/19 12:31:21;;;;;;;16.10;10.60;;;4.10;99.90;;;;;;5055143;28;20546;-71
2021/03/19 12:33:48;;;;;;;15.17;10.60;;;4.20;99.90;;;;;;5052409;28;20931;-71
2021/03/19 12:36:14;;;;;;;17.57;10.93;;;4.20;99.90;;;;;;5050679;28;20452;-71
2021/03/19 12:38:41;;;;;;;19.80;11.83;;;4.20;99.90;;;;;;5054418;28;20539;-71
2021/03/19 12:41:11;;;;;;;16.80;10.80;;;4.20;99.90;;;;;;5050803;28;20535;-71
2021/03/19 12:43:40;;;;;;;18.37;11.67;;;4.20;99.90;;;;;;5047070;28;20459;-71
2021/03/19 12:46:07;;;;;;;13.93;10.40;;;4.10;99.90;;;;;;5057819;28;20453;-71
2021/03/19 12:48:34;;;;;;;16.13;12.00;;;4.10;99.90;;;;;;5054741;28;20439;-71
2021/03/19 12:51:00;;;;;;;16.07;12.20;;;4.10;99.90;;;;;;5061531;28;20494;-71
2021/03/19 12:53:29;;;;;;;14.50;11.83;;;4.20;99.90;;;;;;5060194;28;21177;-72
2021/03/19 12:55:55;;;;;;;14.80;8.67;;;4.30;99.90;;;;;;5051736;28;20439;-72
2021/03/19 12:58:23;;;;;;;16.93;11.37;;;4.30;99.90;;;;;;5057838;28;20456;-70
2021/03/19 13:00:50;;;;;;;13.50;10.17;;;4.30;99.90;;;;;;5056273;28;20522;-70
2021/03/19 13:03:16;;;;;;;15.80;11.43;;;4.20;99.90;;;;;;5041440;28;20456;-71
2021/03/19 13:05:44;;;;;;;18.30;11.73;;;4.40;99.90;;;;;;5033909;28;20459;-71
2021/03/19 13:08:10;;;;;;;14.80;10.50;;;4.40;99.90;;;;;;5056664;28;20568;-72
2021/03/19 13:10:39;;;;;;;20.30;12.47;;;4.50;99.90;;;;;;5049696;28;20506;-71